Wetterdaten: aktuell Samstag, 01.08.2015 09:12
Datum Zeit Temperatur Feuchte Luftdruck Regen Wind Richtung Richtung Taupunkt Windchill
01.08.2015 09:12 16,3 C 69 % 1014,4 hPa 0,0 l/m 32,0 km/h (5 Bft) _ 59085 10,6 C 16,3 C
01.08.2015 08:12 12,8 C 77 % 1014,7 hPa 0,0 l/m 32,0 km/h (5 Bft) _ 59125 8,9 C 12,8 C
01.08.2015 07:12 10,8 C 75 % 1014,8 hPa 0,0 l/m 32,0 km/h (5 Bft) _ 59165 6,5 C 10,8 C
01.08.2015 06:12 11,6 C 70 % 1014,8 hPa 0,0 l/m 32,0 km/h (5 Bft) _ 59205 6,3 C 11,6 C
01.08.2015 05:12 11,8 C 68 % 1014,8 hPa 0,0 l/m 32,0 km/h (5 Bft) _ 59245 6,1 C 11,8 C
01.08.2015 04:12 12,7 C 65 % 1014,7 hPa 0,0 l/m 32,0 km/h (5 Bft) _ 59285 6,3 C 12,7 C
01.08.2015 03:12 13,1 C 63 % 1015,7 hPa 0,0 l/m 32,0 km/h (5 Bft) _ 59325 6,2 C 13,1 C
01.08.2015 02:12 13,5 C 62 % 1015,6 hPa 0,0 l/m 32,0 km/h (5 Bft) _ 59365 6,4 C 13,5 C
01.08.2015 01:12 13,6 C 62 % 1015,6 hPa 0,0 l/m 32,0 km/h (5 Bft) _ 59405 6,5 C 13,6 C
01.08.2015 00:12 13,6 C 62 % 1016,7 hPa 0,0 l/m 32,0 km/h (5 Bft) _ 59445 6,5 C 13,6 C
31.07.2015 23:12 13,9 C 61 % 1016,6 hPa 0,0 l/m 32,0 km/h (5 Bft) _ 59485 6,5 C 13,9 C
31.07.2015 22:12 14,6 C 59 % 1016,6 hPa 0,0 l/m 32,0 km/h (5 Bft) _ 59525 6,7 C 14,6 C
31.07.2015 21:12 16,1 C 54 % 1016,5 hPa 0,0 l/m 32,0 km/h (5 Bft) _ 59565 6,8 C 16,1 C
31.07.2015 20:12 18,4 C 48 % 1016,3 hPa 0,0 l/m 32,0 km/h (5 Bft) _ 59605 7,2 C 18,4 C
31.07.2015 19:12 19,9 C 43 % 1016,1 hPa 0,0 l/m 32,0 km/h (5 Bft) _ 59645 6,9 C 19,9 C
31.07.2015 18:12 21,1 C 41 % 1017,1 hPa 0,0 l/m 32,0 km/h (5 Bft) _ 59685 7,3 C 21,1 C
31.07.2015 17:12 21,6 C 42 % 1017,0 hPa 0,0 l/m 32,0 km/h (5 Bft) _ 59725 8,1 C 21,6 C
31.07.2015 16:12 20,0 C 44 % 1017,2 hPa 0,0 l/m 32,0 km/h (5 Bft) _ 59765 7,4 C 20,0 C
31.07.2015 15:12 21,3 C 45 % 1018,1 hPa 0,0 l/m 32,0 km/h (5 Bft) _ 59805 8,9 C 21,3 C
31.07.2015 14:12 20,5 C 47 % 1019,2 hPa 0,0 l/m 32,0 km/h (5 Bft) _ 59845 8,8 C 20,5 C
31.07.2015 13:12 20,0 C 52 % 1019,2 hPa 0,0 l/m 32,0 km/h (5 Bft) _ 59885 9,8 C 20,0 C
31.07.2015 12:12 18,7 C 58 % 1020,3 hPa 0,0 l/m 32,0 km/h (5 Bft) _ 59925 10,3 C 18,7 C
31.07.2015 11:12 16,6 C 65 % 1020,5 hPa 0,0 l/m 32,0 km/h (5 Bft) _ 59965 10,0 C 16,6 C
31.07.2015 10:12 15,0 C 76 % 1020,6 hPa 0,0 l/m 32,0 km/h (5 Bft) _ 60005 10,8 C 15,0 C
31.07.2015 10:00 15,0 C 78 % 1020,6 hPa 0,0 l/m 32,0 km/h (5 Bft) _ 60015 11,2 C 15,0 C
_ Min-Zeit 07:18 16:42 09:12 - 10:00 - - 04:24 07:18
Minimum _ 10,7 C 40 % 1014,4 hPa - 32,0 km/h (5 Bft) - - 6,0 C 10,7 C
_ Max-Zeit 16:42 10:00 10:09 10:00 10:00 - - 10:36 16:42
Maximum _ 22,1 C 78 % 1020,6 hPa 0,0 l/m 32,0 km/h
N (5 Bft)
- - 11,3 C 22,1 C
Durchschnitt _ 16,1 C 60 % 1017,1 hPa #0,0 l/m 32,0 km/h (5 Bft) N - 7,9 C 16,1 C